Main page
Satellite images 10-day forecastsClimateMarine weather Cyclones Lightning AirportsFAQ Newsletter About
Weather : Europe Africa North America South America Asia Australia-Oceania Others
Languages Contact

Istanbul Sabiha Gökçen, Turkey

Sabiha Gökçen International Airport

latitude: 40-53-55N, longitude: 029-18-33E, elevation: 95 m


METAR: LTFJ 241020Z 03011KT 9999 FEW035 SCT200 28/17 Q1008 NOSIG
TAF: LTFJ 240440Z 2406/2506 03008KT CAVOK PROB30 2500/2504 2400 BR SCT010

Time: 13:58 (10:58 UTC)

Current weather observation

The report was made 38 minutes ago, at 10:20 UTC
Wind 11 kt from the North/Northeast
Temperature 28°C
Humidity 51%
Pressure 1008 hPa
Visibility 10 km or more
Few clouds at a height of 3500 ft
Scattered clouds at a height of 20000 ft

Change units

Forecast

The report was made 6 hours and 18 minutes ago, at 04:40 UTC
Forecast valid from 24 at 06 UTC to 25 at 06 UTC
Wind 8 kt from the North/Northeast
Visibility 10 km or more
no clouds below 1500 m and no cumulonimbus
Probability 30%
from 25 at 00 UTC to 25 at 04 UTC
Visibility: 2400 m
Scattered clouds at a height of 1000 ft
mist
The information on this site is subject to a disclaimer
Weather : Europe Africa North America South America Asia Australia-Oceania Others
Satellite images 10-day forecastsClimateMarine weather Cyclones Lightning AirportsFAQ Languages Contact Newsletter About